Terminal Aerodrome Forecast
Issued by NWS

Home | Current Version | Previous Version | Text Only | Print | Product List | Glossary On
Versions: 1 2 3 4 5 6 7 8 9 10 11 12
000
FTUS45 KSLC 172329
TAFENV
TAF
KENV 172329Z 1800/1824 17005KT P6SM BKN250
     FM180400 05007KT P6SM BKN250
     FM180900 VRB03KT P6SM SCT250
     FM181900 13005KT P6SM SCT250=

USA.gov is the U.S. government's official web portal to all federal, state and local government web resources and services.